createdAt,value
2023-01-28T00:00:50.957Z,30.65
2023-01-28T00:03:17.616Z,30.75
2023-01-28T00:05:44.535Z,31.30
2023-01-28T00:08:11.665Z,32.08
2023-01-28T00:10:41.851Z,33.30
2023-01-28T00:13:12.370Z,37.90
2023-01-28T00:15:38.996Z,32.97
2023-01-28T00:18:05.629Z,31.55
2023-01-28T00:20:32.299Z,36.28
2023-01-28T00:22:58.939Z,39.05
2023-01-28T00:25:25.492Z,34.47
2023-01-28T00:27:52.194Z,35.35
2023-01-28T00:30:19.499Z,32.13
2023-01-28T00:32:46.095Z,34.38
2023-01-28T00:35:13.606Z,32.33
2023-01-28T00:37:40.400Z,36.58
2023-01-28T00:40:09.912Z,29.13
2023-01-28T00:42:37.485Z,36.72
2023-01-28T00:45:04.432Z,29.50
2023-01-28T00:47:34.215Z,31.45
2023-01-28T00:50:04.340Z,28.50
2023-01-28T00:52:31.477Z,32.08
2023-01-28T00:54:58.111Z,25.00
2023-01-28T00:57:24.732Z,26.63
2023-01-28T00:59:51.305Z,25.20
2023-01-28T01:02:18.061Z,27.98
2023-01-28T01:04:54.968Z,28.50
2023-01-28T01:07:34.910Z,25.17
2023-01-28T01:10:02.632Z,23.10
2023-01-28T01:12:29.784Z,22.05
2023-01-28T01:14:57.353Z,28.35
2023-01-28T01:17:24.077Z,22.38
2023-01-28T01:19:50.703Z,31.83
2023-01-28T01:22:17.317Z,25.42
2023-01-28T01:24:43.938Z,27.65
2023-01-28T01:27:10.514Z,26.75
2023-01-28T01:29:37.102Z,28.20
2023-01-28T01:32:03.951Z,28.15
2023-01-28T01:34:30.561Z,26.00
2023-01-28T01:36:58.210Z,28.00
2023-01-28T01:39:24.905Z,28.25
2023-01-28T01:41:51.497Z,27.83
2023-01-28T01:44:48.523Z,28.17
2023-01-28T01:47:18.154Z,31.85
2023-01-28T01:49:45.091Z,28.10
2023-01-28T01:52:16.334Z,29.58
2023-01-28T01:54:47.294Z,29.13
2023-01-28T01:57:19.581Z,27.48
2023-01-28T01:59:46.397Z,31.13
2023-01-28T02:02:13.652Z,26.40
2023-01-28T02:04:44.743Z,26.60
2023-01-28T02:07:14.703Z,29.73
2023-01-28T02:09:41.767Z,28.05
2023-01-28T02:12:13.860Z,25.35
2023-01-28T02:15:00.176Z,28.70
2023-01-28T02:17:27.309Z,27.70
2023-01-28T02:20:00.659Z,25.02
2023-01-28T02:22:42.563Z,25.90
2023-01-28T02:25:39.695Z,26.20
2023-01-28T02:28:22.603Z,28.15
2023-01-28T02:31:00.731Z,26.65
2023-01-28T02:33:31.301Z,30.23
2023-01-28T02:36:09.880Z,25.58
2023-01-28T02:38:45.969Z,27.38
2023-01-28T02:41:21.416Z,26.98
2023-01-28T02:43:48.050Z,28.10
2023-01-28T02:46:50.398Z,28.20
2023-01-28T02:49:23.756Z,30.92
2023-01-28T02:52:45.540Z,29.60
2023-01-28T02:55:27.400Z,28.13
2023-01-28T02:58:09.292Z,33.45
2023-01-28T03:00:56.439Z,26.60
2023-01-28T03:03:28.429Z,26.98
2023-01-28T03:06:06.725Z,26.52
2023-01-28T03:08:51.365Z,28.70
2023-01-28T03:11:33.410Z,22.75
2023-01-28T03:14:15.473Z,26.80
2023-01-28T03:16:58.009Z,26.48
2023-01-28T03:19:39.811Z,24.95
2023-01-28T03:22:21.829Z,24.75
2023-01-28T03:25:07.512Z,28.17
2023-01-28T03:28:08.467Z,29.27
2023-01-28T03:30:58.826Z,25.58
2023-01-28T03:33:41.525Z,24.17
2023-01-28T03:36:24.374Z,26.25
2023-01-28T03:38:50.934Z,26.70
2023-01-28T03:41:26.394Z,24.00
2023-01-28T03:43:53.676Z,29.10
2023-01-28T03:46:20.540Z,25.23
2023-01-28T03:48:47.193Z,28.23
2023-01-28T03:51:13.788Z,26.17
2023-01-28T03:53:41.112Z,30.67
2023-01-28T03:56:08.883Z,44.35
2023-01-28T03:58:50.655Z,35.45
2023-01-28T04:01:17.203Z,43.47
2023-01-28T04:03:43.781Z,38.08
2023-01-28T04:06:10.676Z,46.13
2023-01-28T04:08:37.266Z,43.00
2023-01-28T04:11:19.475Z,42.78
2023-01-28T04:13:48.937Z,37.22
2023-01-28T04:16:17.606Z,37.83
2023-01-28T04:18:45.245Z,39.20
2023-01-28T04:21:12.748Z,44.28
2023-01-28T04:23:39.357Z,41.67
2023-01-28T04:26:05.973Z,45.65
2023-01-28T04:28:32.603Z,43.60
2023-01-28T04:30:59.250Z,50.83
2023-01-28T04:33:25.833Z,46.85
2023-01-28T04:35:52.386Z,54.28
2023-01-28T04:38:18.942Z,52.58
2023-01-28T04:40:48.995Z,52.83
2023-01-28T04:43:15.644Z,51.97
2023-01-28T04:45:42.234Z,66.05
2023-01-28T04:48:12.430Z,51.65
2023-01-28T04:50:42.600Z,53.55
2023-01-28T04:53:10.089Z,49.40
2023-01-28T04:55:37.033Z,51.10
2023-01-28T04:58:03.861Z,52.92
2023-01-28T05:00:30.820Z,53.53
2023-01-28T05:02:57.431Z,50.10
2023-01-28T05:05:24.027Z,56.28
2023-01-28T05:07:52.441Z,49.17
2023-01-28T05:10:20.375Z,50.03
2023-01-28T05:12:48.153Z,55.50
2023-01-28T05:15:17.295Z,57.25
2023-01-28T05:17:44.872Z,55.20
2023-01-28T05:20:14.452Z,54.35
2023-01-28T05:22:42.418Z,54.15
2023-01-28T05:25:09.741Z,56.25
2023-01-28T05:27:36.519Z,55.05
2023-01-28T05:30:03.718Z,59.55
2023-01-28T05:32:30.467Z,54.92
2023-01-28T05:34:57.094Z,62.83
2023-01-28T05:37:23.712Z,53.95
2023-01-28T05:39:50.272Z,62.85
2023-01-28T05:42:18.648Z,59.33
2023-01-28T05:44:45.228Z,53.75
2023-01-28T05:47:11.827Z,54.40
2023-01-28T05:49:38.436Z,53.08
2023-01-28T05:52:05.024Z,54.25
2023-01-28T05:54:31.590Z,52.97
2023-01-28T05:56:58.175Z,50.78
2023-01-28T05:59:24.750Z,55.25
2023-01-28T06:01:51.279Z,53.13
2023-01-28T06:04:20.190Z,53.88
2023-01-28T06:06:47.673Z,55.38
2023-01-28T06:09:14.466Z,61.33
2023-01-28T06:11:41.170Z,55.53
2023-01-28T06:14:07.740Z,52.95
2023-01-28T06:16:35.079Z,50.60
2023-01-28T06:19:01.869Z,47.55
2023-01-28T06:21:30.134Z,59.30
2023-01-28T06:23:56.986Z,56.33
2023-01-28T06:26:23.583Z,53.45
2023-01-28T06:28:50.449Z,53.78
2023-01-28T06:31:17.008Z,55.80
2023-01-28T06:33:43.613Z,58.60
2023-01-28T06:36:10.473Z,54.92
2023-01-28T06:38:37.086Z,57.60
2023-01-28T06:41:03.772Z,56.75
2023-01-28T06:43:30.861Z,57.40
2023-01-28T06:45:58.852Z,53.53
2023-01-28T06:48:26.996Z,51.45
2023-01-28T06:50:53.851Z,56.70
2023-01-28T06:53:21.205Z,60.63
2023-01-28T06:55:47.914Z,50.60
2023-01-28T06:58:14.539Z,60.53
2023-01-28T07:00:41.227Z,58.53
2023-01-28T07:03:07.986Z,65.00
2023-01-28T07:05:34.635Z,59.55
2023-01-28T07:08:02.288Z,67.20
2023-01-28T07:10:29.661Z,61.28
2023-01-28T07:12:56.355Z,62.00
2023-01-28T07:15:22.930Z,66.05
2023-01-28T07:17:49.536Z,60.85
2023-01-28T07:20:17.467Z,68.45
2023-01-28T07:22:45.476Z,62.95
2023-01-28T07:25:13.628Z,66.72
2023-01-28T07:27:40.330Z,68.03
2023-01-28T07:30:07.485Z,62.65
2023-01-28T07:32:34.087Z,57.85
2023-01-28T07:35:00.669Z,54.63
2023-01-28T07:37:27.374Z,55.05
2023-01-28T07:39:53.982Z,60.15
2023-01-28T07:42:20.630Z,57.00
2023-01-28T07:44:47.231Z,61.67
2023-01-28T07:47:13.956Z,62.55
2023-01-28T07:49:40.639Z,52.88
2023-01-28T07:52:08.479Z,55.90
2023-01-28T07:54:35.263Z,54.85
2023-01-28T07:57:01.882Z,56.80
2023-01-28T07:59:28.521Z,56.92
2023-01-28T08:01:55.293Z,52.92
2023-01-28T08:04:22.046Z,54.63
2023-01-28T08:06:48.741Z,57.35
2023-01-28T08:09:15.323Z,61.28
2023-01-28T08:11:42.457Z,53.42
2023-01-28T08:14:10.982Z,50.15
2023-01-28T08:16:37.569Z,58.20
2023-01-28T08:19:04.128Z,62.17
2023-01-28T08:21:30.721Z,53.75
2023-01-28T08:23:57.343Z,48.05
2023-01-28T08:26:23.922Z,56.50
2023-01-28T08:28:51.588Z,46.03
2023-01-28T08:31:18.710Z,48.65
2023-01-28T08:33:45.433Z,64.30
2023-01-28T08:36:12.162Z,52.65
2023-01-28T08:38:38.759Z,63.55
2023-01-28T08:41:05.335Z,62.13
2023-01-28T08:43:31.916Z,65.85
2023-01-28T08:45:58.660Z,63.53
2023-01-28T08:48:25.375Z,62.13
2023-01-28T08:50:58.788Z,60.78
2023-01-28T08:53:25.377Z,63.13
2023-01-28T08:55:51.969Z,62.80
2023-01-28T08:58:18.928Z,61.25
2023-01-28T09:00:46.318Z,65.30
2023-01-28T09:03:12.955Z,60.40
2023-01-28T09:05:39.771Z,66.40
2023-01-28T09:08:10.102Z,62.55
2023-01-28T09:10:38.483Z,65.95
2023-01-28T09:13:07.429Z,58.83
2023-01-28T09:15:34.884Z,64.25
2023-01-28T09:18:01.566Z,62.97
2023-01-28T09:20:28.385Z,56.95
2023-01-28T09:22:55.074Z,70.78
2023-01-28T09:25:21.918Z,71.93
2023-01-28T09:27:48.607Z,79.80
2023-01-28T09:30:15.704Z,69.80
2023-01-28T09:32:42.556Z,75.53
2023-01-28T09:35:09.413Z,75.85
2023-01-28T09:37:36.090Z,78.07
2023-01-28T09:40:03.593Z,69.35
2023-01-28T09:42:44.809Z,62.35
2023-01-28T09:45:27.557Z,65.60
2023-01-28T09:47:57.023Z,61.80
2023-01-28T09:50:33.226Z,67.63
2023-01-28T09:53:10.683Z,56.78
2023-01-28T09:55:44.450Z,67.65
2023-01-28T09:58:15.103Z,61.88
2023-01-28T10:01:02.869Z,63.72
2023-01-28T10:03:57.741Z,52.40
2023-01-28T10:06:34.042Z,60.53
2023-01-28T10:09:14.444Z,56.63
2023-01-28T10:12:11.510Z,65.65
2023-01-28T10:15:05.429Z,59.72
2023-01-28T10:17:39.652Z,62.95
2023-01-28T10:20:18.274Z,64.00
2023-01-28T10:23:03.298Z,56.35
2023-01-28T10:25:32.366Z,56.00
2023-01-28T10:28:01.300Z,58.05
2023-01-28T10:30:31.745Z,63.78
2023-01-28T10:33:05.171Z,54.03
2023-01-28T10:35:37.999Z,60.53
2023-01-28T10:38:08.413Z,58.95
2023-01-28T10:40:35.838Z,56.22
2023-01-28T10:43:02.854Z,61.72
2023-01-28T10:45:36.129Z,54.08
2023-01-28T10:48:14.473Z,66.15
2023-01-28T10:50:51.686Z,68.10
2023-01-28T10:53:20.042Z,59.10
2023-01-28T10:55:55.716Z,61.67
2023-01-28T10:58:29.055Z,59.42
2023-01-28T11:01:00.087Z,65.53
2023-01-28T11:03:27.581Z,64.97
2023-01-28T11:05:56.848Z,69.10
2023-01-28T11:08:25.709Z,67.82
2023-01-28T11:10:53.763Z,68.00
2023-01-28T11:13:23.335Z,66.68
2023-01-28T11:15:53.848Z,71.68
2023-01-28T11:18:24.837Z,77.95
2023-01-28T11:20:56.845Z,76.00
2023-01-28T11:23:28.444Z,71.97
2023-01-28T11:26:04.907Z,71.22
2023-01-28T11:31:01.690Z,64.00
2023-01-28T11:33:44.576Z,74.50
2023-01-28T11:36:19.367Z,76.07
2023-01-28T11:39:05.534Z,77.30
2023-01-28T11:41:34.853Z,82.25
2023-01-28T11:44:19.490Z,65.72
2023-01-28T11:47:15.018Z,74.50
2023-01-28T11:50:04.193Z,66.38
2023-01-28T11:52:48.601Z,59.13
2023-01-28T11:55:23.695Z,70.47
2023-01-28T11:58:06.850Z,62.13
2023-01-28T12:00:48.620Z,59.17
2023-01-28T12:03:38.516Z,61.67
2023-01-28T12:06:33.307Z,59.60
2023-01-28T12:09:17.816Z,61.38
2023-01-28T12:12:15.083Z,58.65
2023-01-28T12:15:12.251Z,54.60
2023-01-28T12:17:45.547Z,60.53
2023-01-28T12:20:19.013Z,64.45
2023-01-28T12:23:01.217Z,66.15
2023-01-28T12:25:42.693Z,64.07
2023-01-28T12:28:30.739Z,59.67
2023-01-28T12:31:13.278Z,58.35
2023-01-28T12:34:07.846Z,66.80
2023-01-28T12:37:09.726Z,54.25
2023-01-28T12:39:51.693Z,63.38
2023-01-28T12:42:48.844Z,70.15
2023-01-28T12:45:23.480Z,61.03
2023-01-28T12:47:56.129Z,62.28
2023-01-28T12:50:32.210Z,59.58
2023-01-28T12:53:20.197Z,52.92
2023-01-28T12:55:51.775Z,64.97
2023-01-28T12:58:28.976Z,61.05
2023-01-28T13:01:00.034Z,57.47
2023-01-28T13:03:57.125Z,66.60
2023-01-28T13:06:39.086Z,58.15
2023-01-28T13:09:17.773Z,62.28
2023-01-28T13:11:46.791Z,52.20
2023-01-28T13:14:15.063Z,63.63
2023-01-28T13:16:41.768Z,60.28
2023-01-28T13:19:23.031Z,53.45
2023-01-28T13:21:50.132Z,67.75
2023-01-28T13:24:16.715Z,61.65
2023-01-28T13:26:56.158Z,72.78
2023-01-28T13:29:34.300Z,67.78
2023-01-28T13:32:04.041Z,65.45
2023-01-28T13:34:45.907Z,69.32
2023-01-28T13:37:43.860Z,60.75
2023-01-28T13:40:29.679Z,56.10
2023-01-28T13:43:13.295Z,61.58
2023-01-28T13:45:39.964Z,73.03
2023-01-28T13:48:21.795Z,76.38
2023-01-28T13:50:54.096Z,62.17
2023-01-28T13:53:22.894Z,65.82
2023-01-28T13:55:55.471Z,66.82
2023-01-28T13:58:52.536Z,73.30
2023-01-28T14:01:19.144Z,59.53
2023-01-28T14:04:20.866Z,70.97
2023-01-28T14:06:47.413Z,59.80
2023-01-28T14:09:46.320Z,63.78
2023-01-28T14:12:38.652Z,62.45
2023-01-28T14:15:40.546Z,66.25
2023-01-28T14:18:22.180Z,67.60
2023-01-28T14:20:49.781Z,67.88
2023-01-28T14:23:19.302Z,73.43
2023-01-28T14:26:15.091Z,76.90
2023-01-28T14:29:12.179Z,70.50
2023-01-28T14:31:39.799Z,69.85
2023-01-28T14:34:24.814Z,71.35
2023-01-28T14:36:56.185Z,65.20
2023-01-28T14:39:32.820Z,58.30
2023-01-28T14:42:02.473Z,62.03
2023-01-28T14:44:45.118Z,67.85
2023-01-28T14:47:35.675Z,63.83
2023-01-28T14:50:18.602Z,68.18
2023-01-28T14:53:01.644Z,62.17
2023-01-28T14:55:48.373Z,67.93
2023-01-28T14:58:23.150Z,68.72
2023-01-28T15:00:55.883Z,69.47
2023-01-28T15:03:25.251Z,61.95
2023-01-28T15:06:16.711Z,64.25
2023-01-28T15:08:43.396Z,58.35
2023-01-28T15:11:16.440Z,61.92
2023-01-28T15:13:47.731Z,65.57
2023-01-28T15:16:22.237Z,72.97
2023-01-28T15:18:50.960Z,53.58
2023-01-28T15:21:21.446Z,57.25
2023-01-28T15:23:53.694Z,69.07
2023-01-28T15:26:25.270Z,64.35
2023-01-28T15:28:53.171Z,62.10
2023-01-28T15:31:23.671Z,59.08
2023-01-28T15:34:14.133Z,58.17
2023-01-28T15:36:41.429Z,62.10
2023-01-28T15:39:18.668Z,57.47
2023-01-28T15:41:50.431Z,65.13
2023-01-28T15:44:21.045Z,61.58
2023-01-28T15:46:47.699Z,62.50
2023-01-28T15:49:16.788Z,65.28
2023-01-28T15:51:51.107Z,59.20
2023-01-28T15:54:18.189Z,65.05
2023-01-28T15:56:44.876Z,63.95
2023-01-28T15:59:21.564Z,60.15
2023-01-28T16:01:48.532Z,62.83
2023-01-28T16:04:30.379Z,66.80
2023-01-28T16:06:58.988Z,61.67
2023-01-28T16:09:31.596Z,65.90
2023-01-28T16:12:13.985Z,61.25
2023-01-28T16:14:45.371Z,60.88
2023-01-28T16:17:17.637Z,63.47
2023-01-28T16:19:48.685Z,66.88
2023-01-28T16:22:22.672Z,60.35
2023-01-28T16:24:52.982Z,58.83
2023-01-28T16:27:23.217Z,64.95
2023-01-28T16:29:49.821Z,66.93
2023-01-28T16:32:37.237Z,61.95
2023-01-28T16:35:12.096Z,64.15
2023-01-28T16:37:40.641Z,69.40
2023-01-28T16:40:10.010Z,72.07
2023-01-28T16:42:36.614Z,67.25
2023-01-28T16:45:04.022Z,69.32
2023-01-28T16:47:30.607Z,73.10
2023-01-28T16:49:57.221Z,69.80
2023-01-28T16:52:23.847Z,65.63
2023-01-28T16:54:53.701Z,71.85
2023-01-28T16:57:24.390Z,72.38
2023-01-28T16:59:51.352Z,68.13
2023-01-28T17:02:18.021Z,69.30
2023-01-28T17:04:44.612Z,73.28
2023-01-28T17:07:11.280Z,79.47
2023-01-28T17:09:37.916Z,67.32
2023-01-28T17:12:04.797Z,72.20
2023-01-28T17:14:31.380Z,77.72
2023-01-28T17:16:57.946Z,78.85
2023-01-28T17:19:24.718Z,67.28
2023-01-28T17:21:51.310Z,68.60
2023-01-28T17:24:18.009Z,71.35
2023-01-28T17:26:44.753Z,73.07
2023-01-28T17:29:11.394Z,69.78
2023-01-28T17:31:38.074Z,70.30
2023-01-28T17:34:07.102Z,72.50
2023-01-28T17:36:33.772Z,64.15
2023-01-28T17:39:00.388Z,64.55
2023-01-28T17:41:27.039Z,66.88
2023-01-28T17:43:54.991Z,68.40
2023-01-28T17:46:23.161Z,74.38
2023-01-28T17:48:49.994Z,71.28
2023-01-28T17:51:18.750Z,70.60
2023-01-28T17:53:48.293Z,71.05
2023-01-28T17:56:53.069Z,66.53
2023-01-28T17:59:24.177Z,67.97
2023-01-28T18:01:55.243Z,66.45
2023-01-28T18:04:23.157Z,84.30
2023-01-28T18:06:51.987Z,89.40
2023-01-28T18:09:20.440Z,91.43
2023-01-28T18:11:48.306Z,80.40
2023-01-28T18:14:15.880Z,73.65
2023-01-28T18:16:43.302Z,73.85
2023-01-28T18:19:11.312Z,74.07
2023-01-28T18:21:57.152Z,73.80
2023-01-28T18:24:29.516Z,74.05
2023-01-28T18:27:00.132Z,65.60
2023-01-28T18:29:30.061Z,70.20
2023-01-28T18:32:00.089Z,73.90
2023-01-28T18:34:31.024Z,64.93
2023-01-28T18:36:59.312Z,70.32
2023-01-28T18:39:30.751Z,96.15
2023-01-28T18:41:59.780Z,100.05
2023-01-28T18:44:30.449Z,87.95
2023-01-28T18:46:57.780Z,78.75
2023-01-28T18:49:25.622Z,73.03
2023-01-28T18:51:53.124Z,80.88
2023-01-28T18:54:23.579Z,70.85
2023-01-28T18:56:51.085Z,67.15
2023-01-28T18:59:18.585Z,61.58
2023-01-28T19:01:48.156Z,64.63
2023-01-28T19:04:16.072Z,68.43
2023-01-28T19:06:43.818Z,75.60
2023-01-28T19:09:13.481Z,65.20
2023-01-28T19:11:41.779Z,64.60
2023-01-28T19:14:10.754Z,65.53
2023-01-28T19:16:39.146Z,57.42
2023-01-28T19:19:07.175Z,74.57
2023-01-28T19:21:35.333Z,83.45
2023-01-28T19:24:07.581Z,80.15
2023-01-28T19:26:36.560Z,66.53
2023-01-28T19:29:08.174Z,70.82
2023-01-28T19:31:38.231Z,71.55
2023-01-28T19:34:06.919Z,65.13
2023-01-28T19:36:34.868Z,76.82
2023-01-28T19:39:06.299Z,68.10
2023-01-28T19:41:34.466Z,71.00
2023-01-28T19:44:02.291Z,66.75
2023-01-28T19:46:30.350Z,68.20
2023-01-28T19:48:59.131Z,56.92
2023-01-28T19:51:26.744Z,75.85
2023-01-28T19:53:55.314Z,72.10
2023-01-28T19:56:24.812Z,64.55
2023-01-28T19:58:54.484Z,65.18
2023-01-28T20:01:24.234Z,65.55
2023-01-28T20:03:55.637Z,77.35
2023-01-28T20:06:24.171Z,64.72
2023-01-28T20:08:54.314Z,61.28
2023-01-28T20:11:22.422Z,63.30
2023-01-28T20:13:52.219Z,60.90
2023-01-28T20:16:23.526Z,61.67
2023-01-28T20:18:53.879Z,65.10
2023-01-28T20:21:22.340Z,62.80
2023-01-28T20:23:52.333Z,63.60
2023-01-28T20:26:22.580Z,63.95
2023-01-28T20:28:50.930Z,59.95
2023-01-28T20:31:19.711Z,66.03
2023-01-28T20:33:47.378Z,50.45
2023-01-28T20:36:15.427Z,57.92
2023-01-28T20:38:45.765Z,51.08
2023-01-28T20:41:17.712Z,52.85
2023-01-28T20:43:45.924Z,52.08
2023-01-28T20:46:17.719Z,52.47
2023-01-28T20:48:45.689Z,54.83
2023-01-28T20:51:16.361Z,48.47
2023-01-28T20:53:45.005Z,49.10
2023-01-28T20:56:19.490Z,53.47
2023-01-28T20:58:49.442Z,49.88
2023-01-28T21:01:20.557Z,52.83
2023-01-28T21:03:48.373Z,51.50
2023-01-28T21:06:16.103Z,56.13
2023-01-28T21:08:44.118Z,50.85
2023-01-28T21:11:12.703Z,51.05
2023-01-28T21:13:40.626Z,45.72
2023-01-28T21:16:08.531Z,46.38
2023-01-28T21:18:36.127Z,44.60
2023-01-28T21:21:05.776Z,42.58
2023-01-28T21:23:33.668Z,43.38
2023-01-28T21:26:03.773Z,44.00
2023-01-28T21:28:31.513Z,50.22
2023-01-28T21:31:08.430Z,47.17
2023-01-28T21:33:37.020Z,53.53
2023-01-28T21:36:14.550Z,45.63
2023-01-28T21:38:42.645Z,44.30
2023-01-28T21:41:11.267Z,41.50
2023-01-28T21:43:39.916Z,42.28
2023-01-28T21:46:07.669Z,42.47
2023-01-28T21:48:35.513Z,38.80
2023-01-28T21:51:21.716Z,36.88
2023-01-28T21:53:48.818Z,41.20
2023-01-28T21:56:16.055Z,40.78
2023-01-28T21:58:58.839Z,46.13
2023-01-28T22:01:26.615Z,45.75
2023-01-28T22:03:54.187Z,46.55
2023-01-28T22:06:21.758Z,39.75
2023-01-28T22:08:49.131Z,46.67
2023-01-28T22:11:16.644Z,41.55
2023-01-28T22:13:43.804Z,47.28
2023-01-28T22:16:11.769Z,55.92
2023-01-28T22:18:39.038Z,51.33
2023-01-28T22:21:09.384Z,57.47
2023-01-28T22:23:37.225Z,53.35
2023-01-28T22:26:06.236Z,54.35
2023-01-28T22:28:33.725Z,60.63
2023-01-28T22:31:12.462Z,53.50
2023-01-28T22:33:40.121Z,48.35
2023-01-28T22:36:12.370Z,58.47
2023-01-28T22:38:40.010Z,46.10
2023-01-28T22:41:11.397Z,53.83
2023-01-28T22:43:40.729Z,52.28
2023-01-28T22:46:09.986Z,45.90
2023-01-28T22:48:39.001Z,44.38
2023-01-28T22:51:14.262Z,44.97
2023-01-28T22:53:42.286Z,40.97
2023-01-28T22:56:09.891Z,53.90
2023-01-28T22:58:37.700Z,42.53
2023-01-28T23:01:06.966Z,51.45
2023-01-28T23:03:35.526Z,46.80
2023-01-28T23:06:05.152Z,44.28
2023-01-28T23:08:33.763Z,44.05
2023-01-28T23:11:02.824Z,45.75
2023-01-28T23:13:51.567Z,40.17
2023-01-28T23:16:34.804Z,48.80
2023-01-28T23:19:20.775Z,46.17
2023-01-28T23:22:04.245Z,47.28
2023-01-28T23:24:33.882Z,49.97
2023-01-28T23:27:03.210Z,47.13
2023-01-28T23:29:32.546Z,46.65
2023-01-28T23:32:06.824Z,48.38
2023-01-28T23:34:37.501Z,43.75
2023-01-28T23:37:07.803Z,40.78
2023-01-28T23:39:37.114Z,44.92
2023-01-28T23:42:17.383Z,49.97
2023-01-28T23:44:45.856Z,52.55
2023-01-28T23:47:13.580Z,46.40
2023-01-28T23:49:41.593Z,43.85
2023-01-28T23:52:10.369Z,45.08
2023-01-28T23:54:38.370Z,42.45
2023-01-28T23:57:06.358Z,40.38
2023-01-28T23:59:33.576Z,45.70
